createdAt,value
2019-04-11T00:01:53.166Z,99.90
2019-04-11T00:04:24.144Z,99.90
2019-04-11T00:06:54.009Z,99.90
2019-04-11T00:09:23.555Z,99.90
2019-04-11T00:11:53.117Z,99.90
2019-04-11T00:14:22.440Z,99.90
2019-04-11T00:16:51.787Z,99.90
2019-04-11T00:19:21.185Z,99.90
2019-04-11T00:21:50.568Z,99.90
2019-04-11T00:24:20.777Z,99.90
2019-04-11T00:26:50.709Z,99.90
2019-04-11T00:29:20.557Z,99.90
2019-04-11T00:31:49.986Z,99.90
2019-04-11T00:34:20.535Z,99.90
2019-04-11T00:36:49.959Z,99.90
2019-04-11T00:39:19.489Z,99.90
2019-04-11T00:41:48.953Z,99.90
2019-04-11T00:44:19.387Z,99.90
2019-04-11T00:46:48.918Z,99.90
2019-04-11T00:49:18.701Z,99.90
2019-04-11T00:51:48.079Z,99.90
2019-04-11T00:54:18.410Z,99.90
2019-04-11T00:56:48.446Z,99.90
2019-04-11T00:59:18.296Z,99.90
2019-04-11T01:01:47.688Z,99.90
2019-04-11T01:04:17.944Z,99.90
2019-04-11T01:06:47.428Z,99.90
2019-04-11T01:09:17.934Z,99.90
2019-04-11T01:11:47.896Z,99.90
2019-04-11T01:14:17.426Z,99.90
2019-04-11T01:16:54.319Z,99.90
2019-04-11T01:19:24.786Z,99.90
2019-04-11T01:21:54.990Z,99.90
2019-04-11T01:24:24.404Z,99.90
2019-04-11T01:26:53.909Z,99.90
2019-04-11T01:29:23.271Z,99.90
2019-04-11T01:31:58.103Z,99.90
2019-04-11T01:34:28.662Z,99.90
2019-04-11T01:36:58.158Z,99.90
2019-04-11T01:39:35.394Z,99.90
2019-04-11T01:42:04.891Z,99.90
2019-04-11T01:44:34.364Z,99.90
2019-04-11T01:47:05.243Z,99.90
2019-04-11T01:49:34.598Z,99.90
2019-04-11T01:52:05.044Z,99.90
2019-04-11T01:54:35.267Z,99.90
2019-04-11T01:57:05.426Z,99.90
2019-04-11T01:59:35.417Z,99.90
2019-04-11T02:02:19.496Z,99.90
2019-04-11T02:05:02.863Z,99.90
2019-04-11T02:07:32.196Z,99.90
2019-04-11T02:10:02.492Z,99.90
2019-04-11T02:12:32.030Z,99.90
2019-04-11T02:15:01.428Z,99.90
2019-04-11T02:17:30.776Z,99.90
2019-04-11T02:20:00.705Z,99.90
2019-04-11T02:22:36.764Z,99.90
2019-04-11T02:25:44.925Z,99.90
2019-04-11T02:28:16.911Z,99.90
2019-04-11T02:30:51.015Z,99.90
2019-04-11T02:33:21.616Z,99.90
2019-04-11T02:35:51.865Z,99.90
2019-04-11T02:38:23.568Z,99.90
2019-04-11T02:40:52.740Z,99.90
2019-04-11T02:43:23.092Z,99.90
2019-04-11T02:46:08.807Z,99.90
2019-04-11T02:48:24.522Z,99.90
2019-04-11T02:50:54.352Z,99.90
2019-04-11T02:53:26.122Z,99.90
2019-04-11T02:55:56.583Z,99.90
2019-04-11T02:58:27.417Z,99.90
2019-04-11T03:01:00.369Z,99.90
2019-04-11T03:03:29.762Z,99.90
2019-04-11T03:06:00.434Z,99.90
2019-04-11T03:08:34.104Z,99.90
2019-04-11T03:11:01.949Z,99.90
2019-04-11T03:13:33.434Z,99.90
2019-04-11T03:16:19.268Z,99.90
2019-04-11T03:18:53.044Z,99.90
2019-04-11T03:21:12.805Z,99.90
2019-04-11T03:23:37.350Z,99.90
2019-04-11T03:26:07.619Z,99.90
2019-04-11T03:28:40.552Z,99.90
2019-04-11T03:31:47.234Z,99.90
2019-04-11T03:34:33.448Z,99.90
2019-04-11T03:37:12.007Z,99.90
2019-04-11T03:39:07.676Z,99.90
2019-04-11T03:41:34.722Z,99.90
2019-04-11T03:43:57.716Z,99.90
2019-04-11T03:46:34.002Z,99.90
2019-04-11T03:49:00.561Z,99.90
2019-04-11T03:51:22.768Z,99.90
2019-04-11T03:53:53.623Z,99.90
2019-04-11T03:56:24.409Z,99.90
2019-04-11T03:58:55.394Z,99.90
2019-04-11T04:01:26.699Z,99.90
2019-04-11T04:03:56.224Z,99.90
2019-04-11T04:06:25.786Z,99.90
2019-04-11T04:08:55.685Z,99.90
2019-04-11T04:11:27.740Z,99.90
2019-04-11T04:14:10.499Z,99.90
2019-04-11T04:17:01.151Z,99.90
2019-04-11T04:19:49.764Z,99.90
2019-04-11T04:22:29.253Z,99.90
2019-04-11T04:24:58.993Z,99.90
2019-04-11T04:27:30.504Z,99.90
2019-04-11T04:30:02.994Z,99.90
2019-04-11T04:32:32.424Z,99.90
2019-04-11T04:35:03.080Z,99.90
2019-04-11T04:37:34.740Z,99.90
2019-04-11T04:40:24.117Z,99.90
2019-04-11T04:42:43.017Z,99.90
2019-04-11T04:45:09.060Z,99.90
2019-04-11T04:47:46.198Z,99.90
2019-04-11T04:50:11.055Z,99.90
2019-04-11T04:52:40.871Z,99.90
2019-04-11T04:55:10.728Z,99.90
2019-04-11T04:57:40.611Z,99.90
2019-04-11T05:00:11.593Z,99.90
2019-04-11T05:02:42.173Z,99.90
2019-04-11T05:05:13.613Z,99.90
2019-04-11T05:07:46.294Z,99.90
2019-04-11T05:10:15.350Z,99.90
2019-04-11T05:12:46.125Z,99.90
2019-04-11T05:15:16.665Z,99.90
2019-04-11T05:17:46.278Z,99.90
2019-04-11T05:20:16.305Z,99.90
2019-04-11T05:22:45.688Z,99.90
2019-04-11T05:25:15.039Z,99.90
2019-04-11T05:27:45.383Z,99.90
2019-04-11T05:30:14.865Z,97.80
2019-04-11T05:32:45.201Z,94.00
2019-04-11T05:35:14.580Z,88.60
2019-04-11T05:37:45.034Z,86.10
2019-04-11T05:40:14.855Z,82.30
2019-04-11T05:42:45.146Z,75.60
2019-04-11T05:45:19.477Z,71.20
2019-04-11T05:47:46.149Z,71.40
2019-04-11T05:50:30.435Z,67.50
2019-04-11T05:53:03.525Z,66.90
2019-04-11T05:55:41.574Z,66.80
2019-04-11T05:58:12.952Z,63.90
2019-04-11T06:00:50.017Z,64.50
2019-04-11T06:03:19.591Z,63.00
2019-04-11T06:05:59.851Z,60.80
2019-04-11T06:08:30.360Z,60.60
2019-04-11T06:11:20.859Z,59.70
2019-04-11T06:14:02.426Z,57.10
2019-04-11T06:16:36.897Z,57.10
2019-04-11T06:19:20.666Z,57.50
2019-04-11T06:21:53.091Z,56.00
2019-04-11T06:24:38.530Z,55.50
2019-04-11T06:27:20.651Z,55.40
2019-04-11T06:30:28.294Z,54.00
2019-04-11T06:33:16.387Z,52.90
2019-04-11T06:35:57.650Z,54.50
2019-04-11T06:38:49.289Z,55.70
2019-04-11T06:41:43.807Z,55.10
2019-04-11T06:44:30.430Z,54.70
2019-04-11T06:47:25.026Z,54.20
2019-04-11T06:50:13.204Z,54.30
2019-04-11T06:52:43.360Z,54.90
2019-04-11T06:55:18.285Z,55.50
2019-04-11T06:57:48.106Z,55.60
2019-04-11T07:00:17.776Z,56.00
2019-04-11T07:02:54.986Z,55.20
2019-04-11T07:05:26.657Z,54.20
2019-04-11T07:07:56.218Z,53.40
2019-04-11T07:10:30.785Z,54.50
2019-04-11T07:13:14.297Z,55.50
2019-04-11T07:15:52.891Z,54.80
2019-04-11T07:18:40.031Z,55.90
2019-04-11T07:21:11.082Z,55.00
2019-04-11T07:23:59.546Z,55.70
2019-04-11T07:26:41.580Z,56.40
2019-04-11T07:29:30.043Z,55.50
2019-04-11T07:32:11.511Z,54.90
2019-04-11T07:34:59.905Z,56.10
2019-04-11T07:37:40.673Z,56.60
2019-04-11T07:40:36.937Z,56.00
2019-04-11T07:43:35.528Z,54.60
2019-04-11T07:46:25.142Z,58.40
2019-04-11T07:48:57.662Z,56.20
2019-04-11T07:51:36.300Z,55.70
2019-04-11T07:54:09.231Z,57.80
2019-04-11T07:56:58.644Z,55.20
2019-04-11T08:00:00.136Z,55.90
2019-04-11T08:02:57.654Z,54.50
2019-04-11T08:05:55.114Z,55.30
2019-04-11T08:08:51.387Z,54.90
2019-04-11T08:11:27.600Z,58.30
2019-04-11T08:14:16.085Z,55.70
2019-04-11T08:17:01.727Z,55.70
2019-04-11T08:20:03.008Z,57.70
2019-04-11T08:22:45.322Z,57.90
2019-04-11T08:25:39.878Z,56.50
2019-04-11T08:28:13.586Z,56.80
2019-04-11T08:30:48.818Z,56.60
2019-04-11T08:33:18.387Z,55.50
2019-04-11T08:36:09.948Z,56.90
2019-04-11T08:38:40.384Z,58.10
2019-04-11T08:41:27.465Z,58.60
2019-04-11T08:43:56.884Z,58.70
2019-04-11T08:46:42.614Z,58.70
2019-04-11T08:49:32.092Z,57.80
2019-04-11T08:52:05.514Z,57.20
2019-04-11T08:54:53.900Z,56.80
2019-04-11T08:57:36.172Z,58.10
2019-04-11T09:00:26.285Z,58.40
2019-04-11T09:03:07.274Z,58.80
2019-04-11T09:06:10.766Z,56.20
2019-04-11T09:08:59.055Z,56.50
2019-04-11T09:11:52.381Z,59.10
2019-04-11T09:14:44.417Z,57.60
2019-04-11T09:17:36.672Z,57.10
2019-04-11T09:20:25.409Z,58.20
2019-04-11T09:23:03.758Z,55.30
2019-04-11T09:26:11.750Z,57.20
2019-04-11T09:28:46.260Z,55.30
2019-04-11T09:31:37.891Z,56.90
2019-04-11T09:34:30.153Z,58.50
2019-04-11T09:37:19.226Z,56.40
2019-04-11T09:40:20.995Z,55.60
2019-04-11T09:43:28.251Z,56.50
2019-04-11T09:46:32.441Z,57.30
2019-04-11T09:49:18.728Z,53.60
2019-04-11T09:52:12.168Z,56.00
2019-04-11T09:55:00.930Z,55.90
2019-04-11T09:57:36.579Z,58.60
2019-04-11T10:00:26.642Z,59.60
2019-04-11T10:03:06.674Z,59.00
2019-04-11T10:06:01.333Z,59.90
2019-04-11T10:08:55.530Z,57.40
2019-04-11T10:11:59.050Z,55.20
2019-04-11T10:14:31.420Z,55.10
2019-04-11T10:17:26.024Z,56.00
2019-04-11T10:20:14.076Z,54.40
2019-04-11T10:23:14.371Z,54.20
2019-04-11T10:25:47.862Z,55.10
2019-04-11T10:28:42.132Z,57.10
2019-04-11T10:31:12.971Z,58.40
2019-04-11T10:34:17.429Z,56.20
2019-04-11T10:37:01.228Z,55.50
2019-04-11T10:40:00.020Z,56.20
2019-04-11T10:42:30.756Z,55.80
2019-04-11T10:45:25.278Z,52.50
2019-04-11T10:48:32.258Z,54.60
2019-04-11T10:51:08.940Z,56.10
2019-04-11T10:53:39.456Z,54.00
2019-04-11T10:56:22.338Z,54.00
2019-04-11T10:58:59.542Z,56.10
2019-04-11T11:01:53.901Z,55.50
2019-04-11T11:04:28.875Z,55.00
2019-04-11T11:07:02.330Z,54.60
2019-04-11T11:09:44.678Z,54.50
2019-04-11T11:12:33.066Z,53.30
2019-04-11T11:15:19.702Z,53.70
2019-04-11T11:20:53.098Z,57.50
2019-04-11T11:23:37.189Z,55.40
2019-04-11T11:26:19.837Z,53.50
2019-04-11T11:29:07.083Z,54.20
2019-04-11T11:31:40.969Z,57.70
2019-04-11T11:34:17.329Z,54.70
2019-04-11T11:37:04.823Z,55.20
2019-04-11T11:39:47.355Z,51.30
2019-04-11T11:42:40.644Z,53.50
2019-04-11T11:45:19.950Z,53.40
2019-04-11T11:48:01.572Z,52.90
2019-04-11T11:50:33.035Z,56.60
2019-04-11T11:53:21.054Z,59.60
2019-04-11T11:55:51.611Z,56.30
2019-04-11T11:58:55.337Z,52.80
2019-04-11T12:01:20.126Z,53.50
2019-04-11T12:04:07.331Z,51.70
2019-04-11T12:06:37.023Z,53.20
2019-04-11T12:09:42.496Z,53.90
2019-04-11T12:12:17.674Z,53.50
2019-04-11T12:15:14.211Z,54.60
2019-04-11T12:18:09.400Z,53.10
2019-04-11T12:20:44.954Z,50.90
2019-04-11T12:23:23.190Z,55.10
2019-04-11T12:25:53.608Z,54.00
2019-04-11T12:28:50.086Z,57.20
2019-04-11T12:31:19.710Z,57.30
2019-04-11T12:34:10.706Z,55.90
2019-04-11T12:36:44.712Z,56.40
2019-04-11T12:39:31.428Z,54.90
2019-04-11T12:42:03.782Z,56.10
2019-04-11T12:44:52.074Z,54.80
2019-04-11T12:47:26.451Z,57.30
2019-04-11T12:50:30.074Z,55.70
2019-04-11T12:53:04.198Z,57.10
2019-04-11T12:55:46.164Z,57.00
2019-04-11T12:58:23.800Z,56.50
2019-04-11T13:01:05.862Z,55.10
2019-04-11T13:03:53.141Z,55.20
2019-04-11T13:06:35.387Z,56.20
2019-04-11T13:09:16.939Z,53.80
2019-04-11T13:11:50.419Z,54.90
2019-04-11T13:14:38.731Z,58.70
2019-04-11T13:17:09.558Z,56.80
2019-04-11T13:20:09.794Z,55.90
2019-04-11T13:22:39.599Z,55.50
2019-04-11T13:25:30.682Z,53.40
2019-04-11T13:28:00.043Z,56.00
2019-04-11T13:30:51.406Z,54.50
2019-04-11T13:33:23.611Z,57.30
2019-04-11T13:36:18.024Z,54.20
2019-04-11T13:38:51.752Z,55.70
2019-04-11T13:41:38.663Z,55.90
2019-04-11T13:44:10.945Z,55.70
2019-04-11T13:46:52.149Z,56.40
2019-04-11T13:49:55.826Z,59.30
2019-04-11T13:52:44.305Z,56.10
2019-04-11T13:55:30.950Z,55.90
2019-04-11T13:58:18.091Z,56.50
2019-04-11T14:00:48.815Z,57.20
2019-04-11T14:03:39.868Z,56.80
2019-04-11T14:06:28.178Z,55.50
2019-04-11T14:09:16.558Z,56.30
2019-04-11T14:11:48.066Z,57.10
2019-04-11T14:14:35.700Z,57.20
2019-04-11T14:17:33.423Z,55.40
2019-04-11T14:20:29.202Z,56.50
2019-04-11T14:23:14.100Z,56.00
2019-04-11T14:26:01.761Z,56.00
2019-04-11T14:28:50.071Z,60.80
2019-04-11T14:31:37.006Z,57.60
2019-04-11T14:34:29.369Z,57.80
2019-04-11T14:37:04.218Z,58.00
2019-04-11T14:39:36.160Z,56.70
2019-04-11T14:42:27.263Z,56.10
2019-04-11T14:44:56.686Z,58.70
2019-04-11T14:47:42.936Z,57.80
2019-04-11T14:50:12.586Z,55.40
2019-04-11T14:53:03.903Z,55.70
2019-04-11T14:55:36.894Z,57.40
2019-04-11T14:58:41.911Z,57.90
2019-04-11T15:01:14.558Z,58.00
2019-04-11T15:04:01.774Z,58.10
2019-04-11T15:06:35.358Z,57.10
2019-04-11T15:09:31.848Z,58.30
2019-04-11T15:12:10.867Z,57.60
2019-04-11T15:14:59.148Z,58.60
2019-04-11T15:17:33.894Z,57.60
2019-04-11T15:20:37.535Z,58.10
2019-04-11T15:23:25.838Z,57.80
2019-04-11T15:26:11.913Z,57.40
2019-04-11T15:28:52.834Z,57.60
2019-04-11T15:31:41.708Z,57.30
2019-04-11T15:34:28.646Z,56.80
2019-04-11T15:37:10.467Z,57.30
2019-04-11T15:40:04.979Z,57.90
2019-04-11T15:42:56.293Z,58.00
2019-04-11T15:45:35.925Z,57.50
2019-04-11T15:48:23.821Z,58.40
2019-04-11T15:51:11.288Z,59.50
2019-04-11T15:53:58.471Z,59.90
2019-04-11T15:56:45.379Z,59.30
2019-04-11T15:59:30.314Z,59.80
2019-04-11T16:02:27.626Z,58.90
2019-04-11T16:05:14.795Z,59.30
2019-04-11T16:08:01.645Z,61.40
2019-04-11T16:10:32.746Z,58.30
2019-04-11T16:13:08.735Z,59.00
2019-04-11T16:15:38.320Z,59.50
2019-04-11T16:18:25.262Z,60.10
2019-04-11T16:20:57.503Z,61.60
2019-04-11T16:23:38.142Z,60.70
2019-04-11T16:26:10.227Z,59.10
2019-04-11T16:29:17.058Z,60.90
2019-04-11T16:31:46.878Z,61.10
2019-04-11T16:34:48.548Z,61.90
2019-04-11T16:37:18.010Z,62.30
2019-04-11T16:40:15.316Z,63.30
2019-04-11T16:42:53.630Z,64.60
2019-04-11T16:45:29.756Z,61.50
2019-04-11T16:48:04.951Z,65.00
2019-04-11T16:50:35.511Z,62.30
2019-04-11T16:53:10.533Z,64.20
2019-04-11T16:55:41.814Z,62.60
2019-04-11T16:58:08.194Z,62.30
2019-04-11T17:00:37.655Z,62.70
2019-04-11T17:03:06.999Z,66.10
2019-04-11T17:05:37.277Z,64.10
2019-04-11T17:08:34.658Z,63.80
2019-04-11T17:11:07.577Z,64.10
2019-04-11T17:13:36.928Z,67.50
2019-04-11T17:16:08.787Z,66.50
2019-04-11T17:18:38.135Z,66.60
2019-04-11T17:21:08.530Z,66.20
2019-04-11T17:23:38.238Z,67.30
2019-04-11T17:26:07.590Z,68.30
2019-04-11T17:28:37.083Z,68.90
2019-04-11T17:31:06.446Z,67.00
2019-04-11T17:33:35.801Z,69.30
2019-04-11T17:36:05.225Z,68.50
2019-04-11T17:38:36.906Z,69.30
2019-04-11T17:41:05.926Z,68.80
2019-04-11T17:43:35.288Z,70.30
2019-04-11T17:46:04.637Z,69.70
2019-04-11T17:48:33.991Z,69.90
2019-04-11T17:51:05.099Z,69.10
2019-04-11T17:53:34.351Z,69.60
2019-04-11T17:56:03.700Z,70.70
2019-04-11T17:58:33.059Z,70.60
2019-04-11T18:01:05.378Z,71.10
2019-04-11T18:03:34.174Z,71.20
2019-04-11T18:06:03.527Z,70.60
2019-04-11T18:08:32.892Z,72.50
2019-04-11T18:11:02.239Z,71.50
2019-04-11T18:13:31.766Z,71.10
2019-04-11T18:16:01.792Z,73.30
2019-04-11T18:18:34.872Z,73.40
2019-04-11T18:21:02.323Z,75.50
2019-04-11T18:23:31.759Z,76.00
2019-04-11T18:26:01.097Z,76.70
2019-04-11T18:28:30.550Z,76.60
2019-04-11T18:30:59.901Z,77.90
2019-04-11T18:33:31.531Z,77.70
2019-04-11T18:36:02.267Z,75.90
2019-04-11T18:38:32.059Z,76.30
2019-04-11T18:41:02.004Z,76.20
2019-04-11T18:43:32.514Z,78.10
2019-04-11T18:46:02.010Z,78.90
2019-04-11T18:48:31.368Z,77.90
2019-04-11T18:51:00.710Z,78.30
2019-04-11T18:53:30.075Z,78.60
2019-04-11T18:56:01.562Z,79.30
2019-04-11T18:58:33.787Z,80.20
2019-04-11T19:01:01.418Z,79.70
2019-04-11T19:03:36.028Z,80.50
2019-04-11T19:06:01.769Z,80.60
2019-04-11T19:08:31.290Z,82.80
2019-04-11T19:11:00.726Z,83.20
2019-04-11T19:13:30.100Z,84.30
2019-04-11T19:15:59.434Z,84.60
2019-04-11T19:18:28.795Z,84.30
2019-04-11T19:20:58.142Z,86.30
2019-04-11T19:23:27.515Z,90.40
2019-04-11T19:25:56.850Z,90.00
2019-04-11T19:28:26.270Z,90.80
2019-04-11T19:30:56.788Z,91.60
2019-04-11T19:33:26.272Z,91.70
2019-04-11T19:35:55.603Z,92.00
2019-04-11T19:38:26.620Z,92.00
2019-04-11T19:40:55.961Z,91.80
2019-04-11T19:43:25.324Z,91.90
2019-04-11T19:45:54.651Z,93.00
2019-04-11T19:48:25.232Z,93.00
2019-04-11T19:50:58.639Z,93.10
2019-04-11T19:53:26.075Z,93.50
2019-04-11T19:56:32.867Z,94.20
2019-04-11T19:59:02.329Z,95.60
2019-04-11T20:01:31.659Z,96.00
2019-04-11T20:04:01.032Z,97.00
2019-04-11T20:06:30.374Z,98.10
2019-04-11T20:08:59.740Z,98.10
2019-04-11T20:11:30.027Z,98.70
2019-04-11T20:14:00.031Z,99.70
2019-04-11T20:16:41.101Z,99.90
2019-04-11T20:19:01.511Z,99.90
2019-04-11T20:21:30.912Z,99.90
2019-04-11T20:24:00.315Z,99.90
2019-04-11T20:26:29.656Z,99.90
2019-04-11T20:28:59.035Z,99.90
2019-04-11T20:31:28.387Z,99.90
2019-04-11T20:33:57.757Z,99.90
2019-04-11T20:36:33.266Z,99.90
2019-04-11T20:38:58.172Z,99.90
2019-04-11T20:41:27.506Z,99.90
2019-04-11T20:43:57.185Z,99.90
2019-04-11T20:46:29.120Z,99.90
2019-04-11T20:48:57.635Z,99.90
2019-04-11T20:51:27.003Z,99.90
2019-04-11T20:53:56.348Z,99.90
2019-04-11T20:56:25.699Z,99.90
2019-04-11T20:58:55.039Z,99.90
2019-04-11T21:01:26.214Z,99.90
2019-04-11T21:03:55.394Z,99.90
2019-04-11T21:06:24.758Z,99.90
2019-04-11T21:08:54.105Z,99.90
2019-04-11T21:11:23.477Z,99.90
2019-04-11T21:13:52.818Z,99.90
2019-04-11T21:16:22.186Z,99.90
2019-04-11T21:18:51.522Z,99.90
2019-04-11T21:21:22.827Z,99.90
2019-04-11T21:23:51.891Z,99.90
2019-04-11T21:26:21.270Z,99.90
2019-04-11T21:28:50.631Z,99.90
2019-04-11T21:31:20.002Z,99.90
2019-04-11T21:33:49.355Z,99.90
2019-04-11T21:36:18.723Z,99.90
2019-04-11T21:38:48.070Z,99.90
2019-04-11T21:41:17.439Z,99.90
2019-04-11T21:43:46.791Z,99.90
2019-04-11T21:46:16.159Z,99.90
2019-04-11T21:48:45.560Z,99.90
2019-04-11T21:51:14.890Z,99.90
2019-04-11T21:53:45.307Z,99.90
2019-04-11T21:56:15.981Z,99.90
2019-04-11T21:58:49.909Z,99.90
2019-04-11T22:01:18.235Z,99.90
2019-04-11T22:03:47.666Z,99.90
2019-04-11T22:06:17.030Z,99.90
2019-04-11T22:08:46.750Z,99.90
2019-04-11T22:11:16.110Z,99.90
2019-04-11T22:13:45.457Z,99.90
2019-04-11T22:16:14.831Z,99.90
2019-04-11T22:18:44.498Z,99.90
2019-04-11T22:21:15.461Z,99.90
2019-04-11T22:23:48.924Z,99.90
2019-04-11T22:26:16.583Z,99.90
2019-04-11T22:28:45.937Z,99.90
2019-04-11T22:31:15.312Z,99.90
2019-04-11T22:33:52.894Z,99.90
2019-04-11T22:36:22.322Z,99.90
2019-04-11T22:38:51.708Z,99.90
2019-04-11T22:41:21.075Z,99.90
2019-04-11T22:43:50.419Z,99.90
2019-04-11T22:46:20.911Z,99.90
2019-04-11T22:48:50.544Z,99.90
2019-04-11T22:51:19.912Z,99.90
2019-04-11T22:53:59.731Z,99.90
2019-04-11T22:56:20.265Z,99.90
2019-04-11T22:58:49.613Z,99.90
2019-04-11T23:01:18.978Z,99.90
2019-04-11T23:04:01.720Z,99.90
2019-04-11T23:06:31.091Z,99.90
2019-04-11T23:09:00.431Z,99.90
2019-04-11T23:11:29.798Z,99.90
2019-04-11T23:13:59.131Z,99.90
2019-04-11T23:16:28.505Z,99.90
2019-04-11T23:18:57.838Z,99.90
2019-04-11T23:21:27.199Z,99.90
2019-04-11T23:23:56.538Z,99.90
2019-04-11T23:26:25.929Z,99.90
2019-04-11T23:28:55.298Z,99.90
2019-04-11T23:31:24.676Z,99.90
2019-04-11T23:33:54.023Z,99.90
2019-04-11T23:36:23.390Z,99.90
2019-04-11T23:38:53.699Z,99.90
2019-04-11T23:41:23.200Z,99.90
2019-04-11T23:43:52.563Z,99.90
2019-04-11T23:46:22.128Z,99.90
2019-04-11T23:48:54.695Z,99.90
2019-04-11T23:51:25.478Z,99.90
2019-04-11T23:53:53.478Z,99.90
2019-04-11T23:56:22.846Z,99.90
2019-04-11T23:58:52.193Z,99.90
